Time;durP1;ratioP1;P1;durP2;ratioP2;P2;SDS_P1;SDS_P2;PMS_P1;PMS_P2;Temp;Humidity;BMP_temperature;BMP_pressure;BME280_temperature;BME280_humidity;BME280_pressure;Samples;Min_cycle;Max_cycle;Signal;HPM_P1;HPM_P2
2023/08/11 07:23:27;;;;;;;8.18;5.10;;;;;;;-145.79;70.90;77207.72;5280847;28;20401;-71
2023/08/11 07:25:58;;;;;;;6.75;4.90;;;;;;;-145.79;69.46;77195.00;5268511;28;20488;-71
2023/08/11 07:28:29;;;;;;;6.28;5.30;;;;;;;-145.79;70.27;77182.28;5271537;28;20025;-73
2023/08/11 07:31:01;;;;;;;6.88;4.97;;;;;;;-145.79;69.96;77173.78;5262586;28;20047;-74
2023/08/11 07:33:32;;;;;;;7.97;5.03;;;;;;;-145.79;69.83;77173.78;5269628;28;20035;-74
2023/08/11 07:36:03;;;;;;;8.95;7.70;;;;;;;-145.79;70.01;77148.34;5269823;28;20028;-72
2023/08/11 07:38:35;;;;;;;34.10;31.13;;;;;;;-145.79;68.90;77144.13;5266465;28;20511;-74
2023/08/11 07:41:06;;;;;;;9.63;5.38;;;;;;;-145.79;68.90;77131.41;5259312;28;20049;-73
2023/08/11 07:43:38;;;;;;;5.93;4.13;;;;;;;-145.79;68.23;77116.56;5270690;28;20091;-73
2023/08/11 07:46:09;;;;;;;5.47;4.47;;;;;;;-145.79;68.76;77105.97;5261356;28;20029;-74
2023/08/11 07:48:41;;;;;;;5.35;4.85;;;;;;;-145.79;67.07;77108.09;5272993;28;20123;-74
2023/08/11 07:51:14;;;;;;;7.55;4.22;;;;;;;-145.79;65.56;77093.25;5268347;28;20032;-72
2023/08/11 07:53:45;;;;;;;7.93;4.63;;;;;;;-145.79;65.20;77097.50;5258702;28;20021;-74
2023/08/11 07:56:17;;;;;;;7.60;4.47;;;;;;;-145.79;65.68;77086.91;5266564;28;20033;-73
2023/08/11 07:58:49;;;;;;;7.07;4.38;;;;;;;-145.79;65.37;77076.31;5258527;28;20025;-74
2023/08/11 08:01:20;;;;;;;7.50;4.63;;;;;;;-145.79;65.99;77057.22;5266485;28;20029;-72
2023/08/11 08:03:51;;;;;;;5.00;4.10;;;;;;;-145.79;65.25;77055.09;5269989;28;20082;-74
2023/08/11 08:06:23;;;;;;;4.75;4.18;;;;;;;-145.79;64.38;77050.88;5263027;28;20031;-74
2023/08/11 08:08:54;;;;;;;6.03;4.40;;;;;;;-145.79;65.09;77042.38;5265999;28;20027;-74
2023/08/11 08:11:26;;;;;;;8.23;4.97;;;;;;;-145.79;63.91;77021.19;5265202;28;20108;-74
2023/08/11 08:13:57;;;;;;;5.78;4.35;;;;;;;-145.79;63.84;77012.72;5268891;28;20021;-74
2023/08/11 08:16:28;;;;;;;6.88;4.30;;;;;;;-145.79;63.11;77008.47;5267009;28;20033;-74
2023/08/11 08:19:00;;;;;;;5.75;4.25;;;;;;;-145.79;62.99;77000.00;5268037;28;20500;-73
2023/08/11 08:21:32;;;;;;;6.65;4.55;;;;;;;-145.79;62.97;76995.75;5270024;28;20053;-73
2023/08/11 08:24:05;;;;;;;5.38;4.25;;;;;;;-145.79;63.73;76970.31;5260504;28;20056;-71
2023/08/11 08:26:36;;;;;;;5.57;3.97;;;;;;;-145.79;63.08;76957.59;5268635;28;20028;-72
2023/08/11 08:29:08;;;;;;;5.43;3.90;;;;;;;-145.79;62.59;76961.84;5261215;28;20515;-71
2023/08/11 08:31:40;;;;;;;5.32;4.15;;;;;;;-145.79;62.19;76961.84;5266693;28;20029;-71
2023/08/11 08:34:11;;;;;;;7.72;4.30;;;;;;;-145.79;62.21;76955.50;5263247;28;20017;-72
2023/08/11 08:36:42;;;;;;;6.32;3.88;;;;;;;-145.79;61.56;76940.66;5252307;28;20022;-72
2023/08/11 08:39:14;;;;;;;4.80;3.58;;;;;;;-145.79;60.82;76936.41;5253725;28;20100;-72
2023/08/11 08:41:47;;;;;;;5.18;3.97;;;;;;;-145.79;61.07;76936.41;5254851;28;20026;-73
2023/08/11 08:44:19;;;;;;;5.75;3.85;;;;;;;-145.79;61.07;76919.47;5249685;28;20022;-72
2023/08/11 08:46:54;;;;;;;5.47;3.65;;;;;;;-145.79;60.93;76913.09;5255674;28;20483;-74
2023/08/11 08:49:26;;;;;;;8.02;4.53;;;;;;;-145.79;60.71;76906.75;5246596;28;20032;-72
2023/08/11 08:51:58;;;;;;;5.45;4.03;;;;;;;-145.79;60.95;76906.75;5253350;28;20044;-73
2023/08/11 08:54:30;;;;;;;6.57;4.25;;;;;;;-145.79;61.13;76877.06;5253144;28;20029;-74
2023/08/11 08:57:06;;;;;;;4.68;3.85;;;;;;;-145.79;60.48;76866.47;5255506;28;20376;-74
2023/08/11 08:59:38;;;;;;;4.30;3.45;;;;;;;-145.79;60.44;76843.16;5249410;28;20079;-73
2023/08/11 09:02:12;;;;;;;5.30;4.03;;;;;;;-145.79;59.99;76841.03;5251328;28;20037;-71
2023/08/11 09:04:45;;;;;;;4.45;3.72;;;;;;;-145.79;59.95;76819.84;5252986;28;20128;-71
2023/08/11 09:07:17;;;;;;;4.97;3.60;;;;;;;-145.79;60.36;76815.63;5251254;28;20036;-70
2023/08/11 09:09:51;;;;;;;4.47;3.00;;;;;;;-145.79;59.76;76809.25;5253167;28;20381;-69
2023/08/11 09:12:25;;;;;;;4.28;3.38;;;;;;;-145.79;60.04;76790.19;5255379;28;20102;-69
2023/08/11 09:14:58;;;;;;;7.18;3.50;;;;;;;-145.79;59.47;76805.00;5246348;28;20160;-70
2023/08/11 09:17:30;;;;;;;8.98;3.95;;;;;;;-145.79;59.01;76798.66;5254326;28;20021;-69
2023/08/11 09:20:02;;;;;;;3.33;3.03;;;;;;;-145.79;58.41;76783.81;5252429;28;20396;-68
2023/08/11 09:22:36;;;;;;;5.22;3.40;;;;;;;-145.79;58.13;76758.38;5250006;28;20045;-68
2023/08/11 09:25:07;;;;;;;3.47;3.00;;;;;;;-145.79;58.62;76732.97;5254478;28;20029;-67
2023/08/11 09:27:39;;;;;;;4.75;2.63;;;;;;;-145.79;57.91;76728.72;5255107;28;20392;-67
2023/08/11 09:30:13;;;;;;;3.70;3.08;;;;;;;-145.79;56.99;76720.25;5242820;28;20038;-70
2023/08/11 09:32:49;;;;;;;4.82;3.30;;;;;;;-145.79;57.96;76701.16;5257243;28;20029;-70
2023/08/11 09:35:23;;;;;;;4.80;3.22;;;;;;;-145.79;57.50;76707.53;5251677;28;20068;-68
2023/08/11 09:37:55;;;;;;;3.38;2.90;;;;;;;-145.79;57.30;76690.56;5250129;28;20064;-70
2023/08/11 09:40:27;;;;;;;7.65;6.60;;;;;;;-145.79;56.63;76682.09;5253963;28;20056;-69
2023/08/11 09:42:58;;;;;;;4.20;3.20;;;;;;;-145.79;55.96;76688.44;5254197;28;20067;-71
2023/08/11 09:45:33;;;;;;;3.30;2.97;;;;;;;-145.79;56.34;76690.56;5249686;28;20056;-70
2023/08/11 09:48:08;;;;;;;3.63;3.33;;;;;;;-145.79;56.65;76690.56;5253945;28;20436;-72
2023/08/11 09:50:40;;;;;;;5.97;3.67;;;;;;;-145.79;56.94;76686.34;5246429;28;20477;-70
2023/08/11 09:53:12;;;;;;;6.00;4.20;;;;;;;-145.79;57.14;76686.34;5245100;28;20112;-70
2023/08/11 09:55:45;;;;;;;6.47;3.72;;;;;;;-145.79;57.04;76667.25;5254056;28;20528;-71
2023/08/11 09:58:20;;;;;;;4.32;3.25;;;;;;;-145.79;56.59;76669.38;5253077;28;20068;-71
2023/08/11 10:00:52;;;;;;;3.55;2.90;;;;;;;-145.79;57.35;76669.38;5253392;28;20413;-71
2023/08/11 10:03:30;;;;;;;5.18;2.97;;;;;;;-145.79;55.83;76631.22;5247370;28;20128;-69
2023/08/11 10:06:04;;;;;;;5.22;2.88;;;;;;;-145.79;56.38;76635.47;5243800;28;20111;-67
2023/08/11 10:08:36;;;;;;;4.53;2.97;;;;;;;-145.79;55.91;76643.94;5251162;28;20030;-71
2023/08/11 10:11:08;;;;;;;4.03;3.28;;;;;;;-145.79;56.61;76607.91;5253161;28;20025;-71
2023/08/11 10:13:41;;;;;;;5.55;3.00;;;;;;;-145.79;55.48;76620.63;5247430;28;20026;-71
2023/08/11 10:16:14;;;;;;;5.90;2.83;;;;;;;-145.79;55.48;76610.03;5257267;28;20091;-68
2023/08/11 10:18:46;;;;;;;4.55;2.95;;;;;;;-145.79;55.86;76593.09;5249795;28;20051;-69
2023/08/11 10:21:18;;;;;;;7.35;2.80;;;;;;;-145.79;53.88;76584.59;5248477;28;20053;-71
2023/08/11 10:23:49;;;;;;;3.63;3.20;;;;;;;-145.79;54.08;76580.38;5242242;28;20488;-69
2023/08/11 10:26:21;;;;;;;4.30;2.60;;;;;;;-145.79;52.84;76550.69;5253399;28;20179;-69
2023/08/11 10:28:55;;;;;;;3.92;2.60;;;;;;;-145.79;53.05;76548.59;5257409;28;20040;-70
2023/08/11 10:31:31;;;;;;;4.07;2.33;;;;;;;-145.79;52.67;76533.75;5248593;28;20052;-70
2023/08/11 10:34:06;;;;;;;4.78;4.05;;;;;;;-145.79;51.84;76542.22;5251460;28;20026;-69
2023/08/11 10:36:37;;;;;;;4.13;2.60;;;;;;;-145.79;51.97;76533.75;5259526;28;20476;-69
2023/08/11 10:39:09;;;;;;;6.20;4.45;;;;;;;-145.79;51.05;76521.03;5251933;28;20032;-70
2023/08/11 10:41:44;;;;;;;3.80;3.13;;;;;;;-145.79;51.11;76504.09;5248625;28;20033;-70
2023/08/11 10:44:18;;;;;;;3.47;2.40;;;;;;;-145.79;51.71;76525.28;5251490;28;20095;-70
2023/08/11 10:46:51;;;;;;;2.80;2.25;;;;;;;-145.79;52.67;76491.38;5253388;28;20041;-70
2023/08/11 10:49:33;;;;;;;3.28;2.22;;;;;;;-145.79;52.04;76499.84;5251520;28;20033;-70
2023/08/11 10:52:05;;;;;;;2.88;2.60;;;;;;;-145.79;51.42;76499.84;5249721;28;20372;-71
2023/08/11 10:54:37;;;;;;;3.38;2.17;;;;;;;-145.79;51.05;76480.78;5250846;28;20190;-70
2023/08/11 10:57:08;;;;;;;4.72;2.28;;;;;;;-145.79;51.42;76499.84;5249615;28;20028;-70
2023/08/11 10:59:39;;;;;;;3.55;2.10;;;;;;;-145.79;51.19;76491.38;5252155;28;20063;-72
2023/08/11 11:02:12;;;;;;;4.88;2.35;;;;;;;-145.79;51.41;76482.88;5252484;28;20500;-71
2023/08/11 11:04:44;;;;;;;3.45;2.22;;;;;;;-145.79;50.48;76461.69;5251418;28;20462;-71
2023/08/11 11:07:15;;;;;;;3.35;2.67;;;;;;;-145.79;50.65;76476.53;5253418;28;20035;-71
2023/08/11 11:09:47;;;;;;;3.95;2.17;;;;;;;-145.79;51.11;76448.97;5249983;28;20098;-71
2023/08/11 11:12:19;;;;;;;3.47;2.85;;;;;;;-145.79;50.80;76436.28;5249244;28;20025;-72
2023/08/11 11:14:50;;;;;;;4.47;2.83;;;;;;;-145.79;50.44;76448.97;5253173;28;20128;-70
2023/08/11 11:17:22;;;;;;;4.18;2.40;;;;;;;-145.79;50.65;76432.03;5249584;28;20117;-70
2023/08/11 11:19:53;;;;;;;5.05;2.53;;;;;;;-145.79;50.33;76425.66;5255341;28;20111;-71
2023/08/11 11:22:24;;;;;;;4.00;2.55;;;;;;;-145.79;50.12;76425.66;5243874;28;20045;-71
2023/08/11 11:25:02;;;;;;;5.20;3.42;;;;;;;-145.79;49.88;76419.31;5249704;28;20068;-71
2023/08/11 11:27:40;;;;;;;2.95;2.25;;;;;;;-145.79;50.56;76415.06;5254413;28;20049;-71
2023/08/11 11:30:12;;;;;;;5.43;2.67;;;;;;;-145.79;50.75;76415.06;5249426;28;20063;-71
2023/08/11 11:32:44;;;;;;;3.90;2.75;;;;;;;-145.79;50.20;76410.84;5253388;28;20029;-71
2023/08/11 11:35:15;;;;;;;8.50;3.03;;;;;;;-145.79;50.44;76393.88;5251831;28;20017;-71
2023/08/11 11:37:47;;;;;;;3.10;2.70;;;;;;;-145.79;49.89;76383.28;5249414;28;20032;-70
2023/08/11 11:40:18;;;;;;;3.25;2.35;;;;;;;-145.79;50.20;76368.47;5248788;28;20025;-70
2023/08/11 11:42:50;;;;;;;3.85;2.75;;;;;;;-145.79;50.27;76376.94;5247819;28;20120;-70
2023/08/11 11:45:22;;;;;;;4.40;3.08;;;;;;;-145.79;49.91;76347.25;5247536;28;20025;-70
2023/08/11 11:47:53;;;;;;;4.85;2.75;;;;;;;-145.79;50.00;76332.44;5250484;28;20400;-70
2023/08/11 11:50:26;;;;;;;5.20;3.80;;;;;;;-145.79;49.61;76330.31;5248997;28;20025;-70
2023/08/11 11:52:58;;;;;;;3.53;2.40;;;;;;;-145.79;49.98;76309.13;5253130;28;20526;-70
2023/08/11 11:55:29;;;;;;;2.75;2.35;;;;;;;-145.79;49.54;76313.34;5255790;28;20037;-69
2023/08/11 11:58:02;;;;;;;4.72;2.63;;;;;;;-145.79;49.04;76296.41;5248720;28;20116;-69
2023/08/11 12:00:34;;;;;;;2.85;2.30;;;;;;;-145.79;49.07;76302.75;5248842;28;20040;-70
2023/08/11 12:03:06;;;;;;;3.13;2.58;;;;;;;-145.79;49.53;76307.00;5244648;28;20386;-69
2023/08/11 12:05:37;;;;;;;4.50;2.83;;;;;;;-145.79;49.43;76296.41;5252655;28;20033;-69
2023/08/11 12:08:22;;;;;;;3.65;2.67;;;;;;;-145.79;49.23;76287.94;5249205;28;20377;-69
2023/08/11 12:10:53;;;;;;;3.35;2.80;;;;;;;-145.79;48.55;76296.41;5259408;28;20026;-70
2023/08/11 12:13:25;;;;;;;5.85;2.78;;;;;;;-145.79;49.04;76275.22;5256355;28;20032;-70
2023/08/11 12:15:58;;;;;;;3.80;2.60;;;;;;;-145.79;48.44;76266.75;5252840;28;20063;-72
2023/08/11 12:18:30;;;;;;;20.10;18.27;;;;;;;-145.79;48.28;76256.16;5252109;28;20029;-72
2023/08/11 12:21:02;;;;;;;5.55;3.55;;;;;;;-145.79;48.01;76254.03;5254738;28;20025;-69
2023/08/11 12:23:33;;;;;;;5.20;2.95;;;;;;;-145.79;48.47;76232.84;5256052;28;20504;-72
2023/08/11 12:26:05;;;;;;;3.55;3.03;;;;;;;-145.79;48.04;76239.19;5252909;28;20421;-71
2023/08/11 12:28:36;;;;;;;5.05;3.03;;;;;;;-145.79;47.93;76247.66;5252249;28;20064;-70
2023/08/11 12:31:07;;;;;;;4.47;2.70;;;;;;;-145.79;47.72;76239.19;5253837;28;20029;-71
2023/08/11 12:33:39;;;;;;;2.80;2.50;;;;;;;-145.79;47.90;76232.84;5247335;28;20469;-72
2023/08/11 12:36:11;;;;;;;3.75;2.13;;;;;;;-145.79;48.13;76228.59;5260205;28;20029;-73
2023/08/11 12:38:42;;;;;;;5.22;2.95;;;;;;;-145.79;47.77;76215.88;5254319;28;20027;-71
2023/08/11 12:41:13;;;;;;;4.32;2.40;;;;;;;-145.79;48.03;76209.53;5253072;28;20086;-72
2023/08/11 12:43:45;;;;;;;8.85;4.40;;;;;;;-145.79;47.48;76211.66;5252371;28;20025;-72
2023/08/11 12:46:16;;;;;;;2.60;2.40;;;;;;;-145.79;47.51;76211.66;5252698;28;20104;-72
2023/08/11 12:48:48;;;;;;;3.13;2.85;;;;;;;-145.79;47.39;76196.81;5243911;28;20096;-73
2023/08/11 12:51:19;;;;;;;3.88;2.38;;;;;;;-145.79;47.61;76192.56;5254493;28;20095;-72
2023/08/11 12:53:51;;;;;;;3.20;2.90;;;;;;;-145.79;48.24;76186.22;5253716;28;20021;-73
2023/08/11 12:56:22;;;;;;;3.30;2.85;;;;;;;-145.79;48.05;76179.88;5254971;28;20108;-71
2023/08/11 12:58:53;;;;;;;3.28;2.83;;;;;;;-145.79;47.55;76190.47;5251654;28;20026;-73
2023/08/11 13:01:25;;;;;;;3.20;2.90;;;;;;;-145.79;48.13;76179.88;5255092;28;20032;-74
2023/08/11 13:03:58;;;;;;;2.72;2.40;;;;;;;-145.79;47.88;76186.22;5253279;28;20413;-73
2023/08/11 13:06:30;;;;;;;3.15;2.63;;;;;;;-145.79;47.63;76203.16;5254785;28;20029;-73
2023/08/11 13:09:02;;;;;;;7.25;3.03;;;;;;;-145.79;47.81;76203.16;5251080;28;20104;-72
2023/08/11 13:11:33;;;;;;;4.35;2.47;;;;;;;-145.79;47.68;76215.88;5251790;28;20087;-73
2023/08/11 13:14:05;;;;;;;3.00;2.65;;;;;;;-145.79;47.49;76209.53;5251703;28;20461;-73
2023/08/11 13:16:36;;;;;;;2.50;2.30;;;;;;;-145.79;47.74;76203.16;5252259;28;20021;-75
2023/08/11 13:19:07;;;;;;;4.97;3.53;;;;;;;-145.79;47.94;76190.47;5251378;28;20074;-75
2023/08/11 13:21:39;;;;;;;6.10;2.80;;;;;;;-145.79;47.96;76192.56;5254218;28;20063;-72
2023/08/11 13:24:10;;;;;;;4.82;2.65;;;;;;;-145.79;47.85;76181.97;5251256;28;20024;-73
2023/08/11 13:26:41;;;;;;;3.45;2.42;;;;;;;-145.79;48.16;76179.88;5254406;28;20499;-74
2023/08/11 13:29:13;;;;;;;4.40;3.45;;;;;;;-145.79;47.81;76188.34;5252297;28;20033;-73
2023/08/11 13:31:44;;;;;;;3.75;3.00;;;;;;;-145.79;48.37;76179.88;5253380;28;20078;-71
2023/08/11 13:34:15;;;;;;;3.90;2.80;;;;;;;-145.79;48.11;76165.03;5253491;28;20079;-73
2023/08/11 13:36:47;;;;;;;4.13;2.53;;;;;;;-145.79;48.19;76165.03;5257223;28;20024;-72
2023/08/11 13:39:18;;;;;;;3.20;2.70;;;;;;;-145.79;48.25;76158.66;5252064;28;20037;-71
2023/08/11 13:41:49;;;;;;;6.85;3.05;;;;;;;-145.79;47.64;76160.78;5251009;28;20055;-72
2023/08/11 13:44:21;;;;;;;20.13;18.30;;;;;;;-145.79;47.60;76165.03;5252481;28;20091;-72
2023/08/11 13:46:52;;;;;;;4.50;3.03;;;;;;;-145.79;48.02;76171.38;5252781;28;20025;-69
2023/08/11 13:49:24;;;;;;;3.72;2.95;;;;;;;-145.79;48.25;76167.16;5252416;28;20092;-73
2023/08/11 13:51:55;;;;;;;4.70;3.00;;;;;;;-145.79;47.47;76167.16;5254777;28;20032;-73
2023/08/11 13:54:27;;;;;;;3.00;2.80;;;;;;;-145.79;47.36;76177.75;5258923;28;20111;-73
2023/08/11 13:56:58;;;;;;;3.38;2.65;;;;;;;-145.79;47.75;76173.50;5249758;28;20029;-73
2023/08/11 13:59:29;;;;;;;5.13;3.00;;;;;;;-145.79;47.96;76190.47;5254619;28;20056;-71
2023/08/11 14:02:01;;;;;;;5.53;2.08;;;;;;;-145.79;48.20;76181.97;5250119;28;20377;-71
2023/08/11 14:04:32;;;;;;;4.95;2.97;;;;;;;-145.79;48.21;76177.75;5250965;28;20033;-72
2023/08/11 14:07:04;;;;;;;3.78;2.28;;;;;;;-145.79;47.89;76156.56;5254205;28;20029;-72
2023/08/11 14:09:35;;;;;;;2.47;2.28;;;;;;;-145.79;48.04;76152.31;5253078;28;20346;-71
2023/08/11 14:12:07;;;;;;;5.40;2.97;;;;;;;-145.79;47.89;76160.78;5251262;28;20025;-73
2023/08/11 14:14:38;;;;;;;39.90;36.15;;;;;;;-145.79;47.78;76148.06;5253610;28;20103;-73
2023/08/11 14:17:09;;;;;;;7.50;6.80;;;;;;;-145.79;48.10;76145.97;5249900;28;20041;-72
2023/08/11 14:19:41;;;;;;;5.63;3.88;;;;;;;-145.79;47.68;76148.06;5249346;28;20468;-72
2023/08/11 14:22:12;;;;;;;4.13;3.13;;;;;;;-145.79;48.02;76145.97;5249756;28;20048;-73
2023/08/11 14:24:44;;;;;;;3.47;3.13;;;;;;;-145.79;47.83;76156.56;5249281;28;20544;-67
2023/08/11 14:27:16;;;;;;;2.95;2.70;;;;;;;-145.79;47.94;76156.56;5252488;28;20017;-71
2023/08/11 14:29:47;;;;;;;3.08;2.70;;;;;;;-145.79;48.06;76179.88;5249328;28;20078;-72
2023/08/11 14:32:18;;;;;;;3.53;2.80;;;;;;;-145.79;48.78;76188.34;5254097;28;20071;-72
2023/08/11 14:34:50;;;;;;;3.80;2.85;;;;;;;-145.79;48.23;76190.47;5253865;28;20021;-72
2023/08/11 14:37:21;;;;;;;6.72;6.15;;;;;;;-145.79;49.35;76190.47;5244797;28;20071;-73
2023/08/11 14:39:52;;;;;;;4.25;2.83;;;;;;;-145.79;49.45;76194.69;5231601;28;20033;-74
2023/08/11 14:42:24;;;;;;;4.85;3.08;;;;;;;-145.79;49.40;76207.41;5251762;28;20438;-73
2023/08/11 14:44:55;;;;;;;2.92;2.72;;;;;;;-145.79;49.37;76209.53;5244647;28;20063;-73
2023/08/11 14:47:26;;;;;;;4.43;2.60;;;;;;;-145.79;50.18;76211.66;5252389;28;20021;-74
2023/08/11 14:49:58;;;;;;;3.13;2.65;;;;;;;-145.79;50.42;76215.88;5253791;28;20037;-74
2023/08/11 14:52:29;;;;;;;4.90;2.97;;;;;;;-145.79;49.84;76213.75;5250867;28;20021;-74
2023/08/11 14:55:00;;;;;;;3.15;2.85;;;;;;;-145.79;50.15;76211.66;5247020;28;20064;-73
2023/08/11 14:57:32;;;;;;;3.30;2.97;;;;;;;-145.79;50.04;76211.66;5251351;28;20512;-73
2023/08/11 15:00:05;;;;;;;3.10;2.80;;;;;;;-145.79;50.72;76198.94;5250402;28;20053;-78
2023/08/11 15:02:36;;;;;;;3.20;2.90;;;;;;;-145.79;50.88;76198.94;5250478;28;20067;-72
2023/08/11 15:05:08;;;;;;;4.55;2.88;;;;;;;-145.79;50.85;76186.22;5252831;28;20025;-73
2023/08/11 15:07:39;;;;;;;7.20;5.85;;;;;;;-145.79;51.25;76181.97;5249302;28;20032;-73
2023/08/11 15:10:10;;;;;;;3.80;3.40;;;;;;;-145.79;50.43;76177.75;5247888;28;20388;-73
2023/08/11 15:12:42;;;;;;;4.82;2.88;;;;;;;-145.79;49.88;76179.88;5257024;28;20109;-74
2023/08/11 15:15:13;;;;;;;4.78;3.10;;;;;;;-145.79;50.45;76162.91;5246968;28;20033;-73
2023/08/11 15:17:44;;;;;;;4.65;3.47;;;;;;;-145.79;50.81;76152.31;5244622;28;20022;-71
2023/08/11 15:20:16;;;;;;;3.65;2.83;;;;;;;-145.79;51.47;76145.97;5243135;28;20108;-73
2023/08/11 15:22:49;;;;;;;4.60;3.15;;;;;;;-145.79;52.04;76143.84;5250786;28;20061;-74
2023/08/11 15:25:20;;;;;;;3.30;2.97;;;;;;;-145.79;51.80;76152.31;5246677;28;20396;-71
2023/08/11 15:27:52;;;;;;;3.40;3.00;;;;;;;-145.79;51.82;76173.50;5243277;28;20159;-71
2023/08/11 15:30:23;;;;;;;4.13;3.13;;;;;;;-145.79;52.57;76181.97;5253389;28;20061;-72
2023/08/11 15:33:04;;;;;;;7.82;5.00;;;;;;;-145.79;52.54;76194.69;5247311;28;20037;-69
2023/08/11 15:35:37;;;;;;;4.65;4.22;;;;;;;-145.79;52.49;76198.94;5247172;28;20484;-68
2023/08/11 15:38:09;;;;;;;5.30;3.53;;;;;;;-145.79;52.20;76194.69;5247531;28;20409;-70
2023/08/11 15:40:40;;;;;;;4.03;3.20;;;;;;;-145.79;52.40;76186.22;5252877;28;20128;-70
2023/08/11 15:43:11;;;;;;;3.55;3.10;;;;;;;-145.79;52.91;76186.22;5251141;28;20028;-68
2023/08/11 15:45:43;;;;;;;4.00;3.40;;;;;;;-145.79;53.73;76181.97;5252251;28;20060;-69
2023/08/11 15:48:14;;;;;;;6.93;3.67;;;;;;;-145.79;54.41;76186.22;5253770;28;20104;-73
2023/08/11 15:50:45;;;;;;;5.70;5.20;;;;;;;-145.79;56.10;76179.88;5253317;28;20029;-69
2023/08/11 15:53:17;;;;;;;6.05;5.15;;;;;;;-145.79;58.10;76190.47;5254766;28;20108;-70
2023/08/11 15:55:48;;;;;;;6.63;5.70;;;;;;;-145.79;58.98;76201.06;5252750;28;20473;-71
2023/08/11 15:58:19;;;;;;;6.82;5.35;;;;;;;-145.79;59.38;76173.50;5254664;28;20029;-70
2023/08/11 16:00:51;;;;;;;6.85;6.20;;;;;;;-145.79;59.74;76201.06;5247688;28;20041;-70
2023/08/11 16:03:22;;;;;;;7.75;6.20;;;;;;;-145.79;60.22;76205.28;5252484;28;20033;-70
2023/08/11 16:05:53;;;;;;;7.75;5.32;;;;;;;-145.79;60.12;76186.22;5254840;28;20064;-70
2023/08/11 16:08:28;;;;;;;8.98;5.72;;;;;;;-145.79;60.32;76194.69;5255377;28;20028;-70
2023/08/11 16:11:00;;;;;;;8.43;5.90;;;;;;;-145.79;60.46;76196.81;5244651;28;20480;-70
2023/08/11 16:13:31;;;;;;;11.65;5.85;;;;;;;-145.79;60.67;76207.41;5256577;28;20024;-69
2023/08/11 16:16:03;;;;;;;8.38;5.93;;;;;;;-145.79;61.01;76196.81;5249196;28;20036;-69
2023/08/11 16:18:34;;;;;;;8.82;6.28;;;;;;;-145.79;61.06;76207.41;5248020;28;20033;-69
2023/08/11 16:21:07;;;;;;;12.20;6.65;;;;;;;-145.79;60.97;76211.66;5254798;28;20545;-69
2023/08/11 16:23:38;;;;;;;10.02;5.78;;;;;;;-145.79;61.75;76220.13;5252828;28;20056;-69
2023/08/11 16:26:09;;;;;;;11.77;6.80;;;;;;;-145.79;61.88;76213.75;5253106;28;20029;-69
2023/08/11 16:28:42;;;;;;;10.43;5.20;;;;;;;-145.79;62.08;76228.59;5255343;28;20033;-69
2023/08/11 16:31:16;;;;;;;10.00;5.43;;;;;;;-145.79;62.55;76245.56;5251254;28;20473;-69
2023/08/11 16:33:47;;;;;;;9.57;5.80;;;;;;;-145.79;63.06;76262.50;5252083;28;20384;-69
2023/08/11 16:36:19;;;;;;;9.35;6.03;;;;;;;-145.79;63.15;76266.75;5252532;28;20035;-69
2023/08/11 16:38:50;;;;;;;10.10;5.70;;;;;;;-145.79;63.76;76270.97;5257314;28;20075;-69
2023/08/11 16:41:21;;;;;;;8.55;5.80;;;;;;;-145.79;64.42;76285.81;5252578;28;20060;-69
2023/08/11 16:43:53;;;;;;;10.73;6.35;;;;;;;-145.79;64.98;76313.34;5252025;28;20063;-69
2023/08/11 16:46:24;;;;;;;8.40;6.05;;;;;;;-145.79;65.19;76326.06;5251970;28;20105;-69
2023/08/11 16:48:55;;;;;;;9.10;5.80;;;;;;;-145.79;65.74;76319.72;5250789;28;20026;-66
2023/08/11 16:51:27;;;;;;;8.05;5.47;;;;;;;-145.79;65.28;76334.56;5252586;28;20033;-68
2023/08/11 16:53:58;;;;;;;12.02;6.05;;;;;;;-145.79;65.96;76343.03;5241909;28;20107;-69
